• Join FlightAware (Why Join?)
  • Login
  • US Flag 
Gobble Gobble! 
12:39AM EST


 

Airport Tracker/Info


-or-


 

Live Flight TrackerFlight Track Log ✈ N95445 ✈ 31-Jul-2014 ✈ KMFD - KPCW

Flight Track Log - Related Links

Times and Time Zones

All times are in EDT time to prevent confusion due to time zone crossing. See the N95445 flight status page for this flight to view local times or setup timezone preferences in your user account.

Time Position Orientation Groundspeed Altitude Reporting Facility
EDT Latitude Longitude Course Direction KTS MPH feet Rate Location/Type
03:55PM 40.8917 -82.5503 352° North 74 85 3,300  Level Cleveland Center
03:56PM 40.9147 -82.5589 344° North 79 91 3,700 300 Climbing Cleveland Center
03:57PM 40.9386 -82.5711 339° North 79 91 4,000 240 Climbing Cleveland Center
03:58PM 41.0064 -82.6032 339° North  Level FlightAware Approximate
03:58PM 40.9597 -82.5869 330° Northwest 79 91 4,300  Level Cleveland Center
03:59PM 41.0385 -82.6192 339° North  Level FlightAware Approximate
03:59PM 40.9800 -82.6061 324° Northwest 85 98 4,300  Level Cleveland Center
04:00PM 41.0081 -82.6131 349° North 98 113 4,400  Climbing Cleveland Center
04:01PM 41.0342 -82.6172 353° North 98 113 4,400  Level Cleveland Center
04:02PM 41.0639 -82.6328 338° Northwest 91 105 4,500  Climbing Cleveland Center
04:03PM 41.0772 -82.6483 319° Northwest 89 102 4,500 60 Level Cleveland Center
04:03PM 41.0883 -82.6619 317° Northwest 90 104 4,600 60 Climbing Cleveland Center
04:04PM 41.0992 -82.6761 315° West 90 104 4,600  Level Cleveland Center
04:04PM 41.1050 -82.6844 313° West 93 107 4,600  Level Cleveland Center
04:05PM 41.1211 -82.6972 329° Northwest 93 107 4,600  Level Cleveland Center
04:05PM 41.1283 -82.7025 331° Northwest 91 105 4,600  Level Cleveland Center
04:06PM 41.1425 -82.7144 328° Northwest 93 107 4,600 -120 Level Cleveland Center
04:06PM 41.1472 -82.7225 308° West 93 107 4,500 -120 Descending Cleveland Center
04:07PM 41.1639 -82.7347 331° Northwest 92 106 4,500  Level Cleveland Center
04:07PM 41.1708 -82.7406 328° Northwest 92 106 4,500 60 Level Cleveland Center
04:08PM 41.1867 -82.7486 339° North 91 105 4,600 60 Climbing Cleveland Center
04:08PM 41.1947 -82.7531 337° Northwest 90 104 4,600  Level Cleveland Center
04:09PM 41.2106 -82.7611 339° North 91 105 4,600 60 Level Cleveland Center
04:09PM 41.2208 -82.7661 340° North 93 107 4,700  Climbing Cleveland Center
04:10PM 41.2375 -82.7675 356° North 93 107 4,600 -240 Descending Cleveland Center
04:10PM 41.2456 -82.7703 345° North 96 110 4,500 -180 Descending Cleveland Center
04:11PM 41.2728 -82.7725 356° North 96 110 4,400 -60 Descending Cleveland Center
04:12PM 41.2947 -82.7736 358° North 97 112 4,400  Level Cleveland Center
04:13PM 41.3183 -82.7778 352° North 81 93 4,400  Level Cleveland Center
04:14PM 41.3400 -82.7825 351° North 85 98 4,400  Level Cleveland Center